Time;durP1;ratioP1;P1;durP2;ratioP2;P2;SDS_P1;SDS_P2;PMS_P1;PMS_P2;Temp;Humidity;BMP_temperature;BMP_pressure;BME280_temperature;BME280_humidity;BME280_pressure;Samples;Min_cycle;Max_cycle;Signal;HPM_P1;HPM_P2
2022/07/30 00:01:00;;;;;;;7.93;3.00;;;18.10;99.90;;;;;;4197201;28;20179;-92
2022/07/30 00:03:00;;;;;;;6.57;2.85;;;18.10;99.90;;;;;;4197046;28;20225;-92
2022/07/30 00:05:02;;;;;;;8.82;3.00;;;18.10;99.90;;;;;;4197051;28;20174;-93
2022/07/30 00:07:03;;;;;;;6.45;3.10;;;18.20;99.90;;;;;;4214128;28;20179;-92
2022/07/30 00:09:04;;;;;;;8.80;2.97;;;18.10;99.90;;;;;;4200060;28;20233;-94
2022/07/30 00:11:04;;;;;;;9.68;3.60;;;18.10;99.90;;;;;;4200183;28;20179;-92
2022/07/30 00:13:06;;;;;;;10.20;3.35;;;18.10;99.90;;;;;;4216590;28;20198;-91
2022/07/30 00:15:07;;;;;;;11.27;3.60;;;18.10;99.90;;;;;;4199781;28;20228;-92
2022/07/30 00:17:08;;;;;;;13.95;3.60;;;18.10;99.90;;;;;;4200074;28;20570;-92
2022/07/30 00:19:09;;;;;;;11.30;3.10;;;18.10;99.90;;;;;;4216820;28;20173;-91
2022/07/30 00:21:09;;;;;;;10.73;3.83;;;18.00;99.90;;;;;;4199996;28;20167;-91
2022/07/30 00:23:10;;;;;;;7.70;3.25;;;18.10;99.90;;;;;;4199764;28;20195;-93
2022/07/30 00:25:11;;;;;;;8.95;3.38;;;18.00;99.90;;;;;;4216839;28;20730;-93
2022/07/30 00:27:13;;;;;;;10.15;3.42;;;18.10;99.90;;;;;;4200150;28;20178;-94
2022/07/30 00:29:15;;;;;;;9.25;3.50;;;18.00;99.90;;;;;;4216701;28;20166;-90
2022/07/30 00:31:16;;;;;;;10.98;3.92;;;17.90;99.90;;;;;;4200004;28;20174;-92
2022/07/30 00:33:16;;;;;;;10.98;3.65;;;17.90;99.90;;;;;;4216555;28;20202;-91
2022/07/30 00:35:17;;;;;;;10.25;3.55;;;17.70;99.90;;;;;;4199570;28;20193;-92
2022/07/30 00:37:18;;;;;;;10.05;3.63;;;17.70;99.90;;;;;;4199773;28;20214;-93
2022/07/30 00:39:18;;;;;;;7.10;3.67;;;17.70;99.90;;;;;;4199917;28;20708;-92
2022/07/30 00:41:19;;;;;;;12.40;3.97;;;17.70;99.90;;;;;;4199846;28;20171;-91
2022/07/30 00:43:20;;;;;;;10.27;4.15;;;17.80;99.90;;;;;;4216366;28;20167;-92
2022/07/30 00:45:21;;;;;;;9.75;4.32;;;17.90;99.90;;;;;;4216492;28;20177;-93
2022/07/30 00:47:21;;;;;;;12.18;4.35;;;17.90;99.90;;;;;;4216229;28;20177;-91
2022/07/30 00:49:22;;;;;;;10.07;4.40;;;17.80;99.90;;;;;;4216157;28;20257;-92
2022/07/30 00:51:23;;;;;;;9.05;3.70;;;17.80;99.90;;;;;;4216248;28;20181;-92
2022/07/30 00:53:24;;;;;;;9.30;4.47;;;17.70;99.90;;;;;;4199478;28;20200;-92
2022/07/30 00:55:25;;;;;;;14.07;4.68;;;17.70;99.90;;;;;;4199447;28;20201;-93
2022/07/30 00:57:27;;;;;;;10.48;4.53;;;17.70;99.90;;;;;;4199461;28;20759;-92
2022/07/30 00:59:28;;;;;;;11.00;4.28;;;17.70;99.90;;;;;;4216339;28;20173;-92
2022/07/30 01:01:31;;;;;;;9.80;4.32;;;17.70;99.90;;;;;;4216334;28;20182;-94
2022/07/30 01:03:32;;;;;;;10.35;4.32;;;17.70;99.90;;;;;;4216412;28;20172;-93
2022/07/30 01:05:33;;;;;;;13.40;5.50;;;17.60;99.90;;;;;;4199600;28;20679;-92
2022/07/30 01:07:34;;;;;;;13.10;5.90;;;17.50;99.90;;;;;;4216221;28;20158;-91
2022/07/30 01:09:35;;;;;;;16.77;5.78;;;17.50;99.90;;;;;;4199874;28;20187;-92
2022/07/30 01:11:38;;;;;;;13.50;5.13;;;17.40;99.90;;;;;;4215825;28;20190;-91
2022/07/30 01:13:39;;;;;;;14.52;5.55;;;17.30;99.90;;;;;;4199039;28;20181;-95
2022/07/30 01:15:40;;;;;;;13.75;5.68;;;17.40;99.90;;;;;;4198845;28;20167;-91
2022/07/30 01:17:41;;;;;;;11.10;5.07;;;17.40;99.90;;;;;;4199107;28;20633;-91
2022/07/30 01:19:54;;;;;;;10.05;4.78;;;17.40;99.90;;;;;;4198250;28;20175;-95
2022/07/30 01:22:08;;;;;;;7.95;4.78;;;17.40;99.90;;;;;;4199047;28;20187;-94
2022/07/30 01:24:35;;;;;;;17.67;4.97;;;17.30;99.90;;;;;;4215921;28;20193;-95
2022/07/30 01:26:36;;;;;;;11.10;5.10;;;17.20;99.90;;;;;;4215709;28;20170;-92
2022/07/30 01:28:50;;;;;;;8.35;4.50;;;17.10;99.90;;;;;;4198969;28;20628;-92
2022/07/30 01:30:53;;;;;;;10.63;5.40;;;17.10;99.90;;;;;;4215836;28;20176;-92
2022/07/30 01:32:56;;;;;;;7.57;4.70;;;17.00;99.90;;;;;;4198972;28;20202;-93
2022/07/30 01:34:59;;;;;;;10.02;4.78;;;17.00;99.90;;;;;;4215556;28;20178;-93
2022/07/30 01:37:02;;;;;;;12.13;5.28;;;17.00;99.90;;;;;;4215506;28;20236;-92
2022/07/30 01:39:03;;;;;;;14.23;5.45;;;17.00;99.90;;;;;;4198768;28;20193;-96
2022/07/30 01:41:06;;;;;;;13.13;5.25;;;16.90;99.90;;;;;;4198462;28;20181;-95
2022/07/30 01:43:08;;;;;;;15.52;5.80;;;16.90;99.90;;;;;;4215314;28;20186;-94
2022/07/30 01:45:12;;;;;;;10.25;5.45;;;16.80;99.90;;;;;;4198569;28;20227;-93
2022/07/30 01:47:14;;;;;;;14.65;6.03;;;16.90;99.90;;;;;;4215423;28;20630;-92
2022/07/30 01:49:16;;;;;;;13.18;6.13;;;16.80;99.90;;;;;;4215283;28;20193;-92
2022/07/30 01:51:18;;;;;;;15.10;6.35;;;16.90;99.90;;;;;;4215015;28;20213;-93
2022/07/30 01:53:25;;;;;;;14.13;5.63;;;16.90;99.90;;;;;;4215436;28;20742;-94
2022/07/30 01:55:35;;;;;;;9.50;5.63;;;17.00;99.90;;;;;;4215443;28;20670;-92
2022/07/30 01:57:36;;;;;;;9.02;5.75;;;17.00;99.90;;;;;;4198726;28;20186;-94
2022/07/30 01:59:40;;;;;;;12.27;5.60;;;17.00;99.90;;;;;;4215378;28;20166;-92
2022/07/30 02:01:41;;;;;;;10.55;6.00;;;17.00;99.90;;;;;;4198369;28;20203;-94
2022/07/30 02:03:42;;;;;;;13.07;6.82;;;17.00;99.90;;;;;;4215234;28;20528;-92
2022/07/30 02:05:51;;;;;;;11.48;6.50;;;16.90;99.90;;;;;;4215205;28;20178;-91
2022/07/30 02:07:54;;;;;;;12.13;6.50;;;16.90;99.90;;;;;;4214976;28;20689;-93
2022/07/30 02:10:06;;;;;;;19.25;7.57;;;16.80;99.90;;;;;;4214733;28;20189;-93
2022/07/30 02:12:28;;;;;;;11.90;7.18;;;16.80;99.90;;;;;;4215580;28;20203;-92
2022/07/30 02:14:37;;;;;;;14.63;7.60;;;16.80;99.90;;;;;;4215019;28;20228;-92
2022/07/30 02:16:41;;;;;;;14.48;7.93;;;16.80;99.90;;;;;;4215021;28;20213;-91
2022/07/30 02:18:42;;;;;;;14.32;8.43;;;16.90;99.90;;;;;;4214953;28;20179;-92
2022/07/30 02:20:47;;;;;;;17.50;8.02;;;16.80;99.90;;;;;;4214910;28;20239;-93
2022/07/30 02:22:48;;;;;;;14.05;8.43;;;16.80;99.90;;;;;;4214875;28;20243;-92
2022/07/30 02:24:50;;;;;;;15.82;8.38;;;16.80;99.90;;;;;;4197816;28;20167;-93
2022/07/30 02:26:58;;;;;;;15.63;8.23;;;16.80;99.90;;;;;;4214817;28;20583;-94
2022/07/30 02:29:01;;;;;;;13.63;8.50;;;16.80;99.90;;;;;;4214689;28;20171;-92
2022/07/30 02:31:06;;;;;;;11.98;7.82;;;16.80;99.90;;;;;;4214476;28;20205;-94
2022/07/30 02:33:11;;;;;;;17.55;8.02;;;16.80;99.90;;;;;;4197841;28;20244;-93
2022/07/30 02:35:19;;;;;;;12.85;7.95;;;16.60;99.90;;;;;;4214458;28;20174;-93
2022/07/30 02:37:22;;;;;;;13.45;7.82;;;16.50;99.90;;;;;;4197822;28;20221;-92
2022/07/30 02:39:24;;;;;;;14.65;8.48;;;16.40;99.90;;;;;;4214816;28;20209;-92
2022/07/30 02:41:28;;;;;;;15.90;8.43;;;16.40;99.90;;;;;;4214672;28;20166;-92
2022/07/30 02:43:31;;;;;;;16.58;7.82;;;16.40;99.90;;;;;;4214782;28;20198;-93
2022/07/30 02:45:33;;;;;;;16.25;8.93;;;16.40;99.90;;;;;;4197753;28;20258;-94
2022/07/30 02:47:35;;;;;;;15.70;8.27;;;16.40;99.90;;;;;;4214413;28;20566;-92
2022/07/30 02:49:39;;;;;;;16.10;8.93;;;16.40;99.90;;;;;;4214551;28;20181;-92
2022/07/30 02:51:41;;;;;;;11.70;8.20;;;16.40;99.90;;;;;;4197759;28;20910;-93
2022/07/30 02:53:46;;;;;;;15.25;9.07;;;16.30;99.90;;;;;;4214358;28;20178;-92
2022/07/30 02:55:48;;;;;;;13.00;9.10;;;16.30;99.90;;;;;;4214626;28;20630;-93
2022/07/30 02:57:51;;;;;;;12.60;8.32;;;16.30;99.90;;;;;;4214694;28;20170;-93
2022/07/30 02:59:54;;;;;;;17.75;8.02;;;16.30;99.90;;;;;;4214540;28;20585;-91
2022/07/30 03:01:57;;;;;;;17.20;8.77;;;16.20;99.90;;;;;;4214541;28;21018;-93
2022/07/30 03:03:59;;;;;;;16.05;9.00;;;16.10;99.90;;;;;;4214557;28;20170;-92
2022/07/30 03:06:01;;;;;;;13.00;8.48;;;16.00;99.90;;;;;;4214147;28;20214;-92
2022/07/30 03:08:04;;;;;;;17.63;8.60;;;16.00;99.90;;;;;;4197757;28;20328;-93
2022/07/30 03:10:07;;;;;;;15.63;8.88;;;16.00;99.90;;;;;;4214383;28;20243;-94
2022/07/30 03:12:11;;;;;;;14.43;8.60;;;16.00;99.90;;;;;;4214322;28;20185;-93
2022/07/30 03:14:12;;;;;;;12.55;9.00;;;15.90;99.90;;;;;;4214249;28;20205;-93
2022/07/30 03:16:15;;;;;;;16.38;9.32;;;16.00;99.90;;;;;;4214201;28;20700;-93
2022/07/30 03:18:19;;;;;;;13.85;8.90;;;16.00;99.90;;;;;;4197433;28;20178;-92
2022/07/30 03:20:24;;;;;;;15.30;8.88;;;16.00;99.90;;;;;;4213862;28;20555;-93
2022/07/30 03:22:26;;;;;;;17.58;9.77;;;16.10;99.90;;;;;;4213873;28;20280;-95
2022/07/30 03:24:29;;;;;;;16.30;9.13;;;16.10;99.90;;;;;;4214126;28;20181;-94
2022/07/30 03:26:30;;;;;;;14.15;8.82;;;16.10;99.90;;;;;;4197518;28;20171;-93
2022/07/30 03:28:34;;;;;;;12.80;9.05;;;16.10;99.90;;;;;;4214363;28;20697;-94
2022/07/30 03:30:35;;;;;;;16.80;9.18;;;16.10;99.90;;;;;;4214124;28;20335;-93
2022/07/30 03:32:37;;;;;;;19.23;8.93;;;16.00;99.90;;;;;;4197337;28;20182;-93
2022/07/30 03:34:38;;;;;;;18.98;9.95;;;16.00;99.90;;;;;;4197297;28;20258;-93
2022/07/30 03:36:40;;;;;;;14.55;9.32;;;15.90;99.90;;;;;;4197345;28;20211;-93
2022/07/30 03:38:42;;;;;;;18.60;9.52;;;15.80;99.90;;;;;;4197176;28;20174;-94
2022/07/30 03:40:44;;;;;;;14.00;9.48;;;15.80;99.90;;;;;;4197270;28;20265;-93
2022/07/30 03:42:46;;;;;;;12.20;8.93;;;15.90;99.90;;;;;;4214792;28;20740;-93
2022/07/30 03:44:50;;;;;;;15.70;9.85;;;15.90;99.90;;;;;;4217293;28;20261;-94
2022/07/30 03:46:53;;;;;;;15.35;9.38;;;15.90;99.90;;;;;;4217480;28;20658;-93
2022/07/30 03:48:56;;;;;;;21.60;10.18;;;16.00;99.90;;;;;;4217272;28;20182;-92
2022/07/30 03:51:00;;;;;;;15.27;9.77;;;16.00;99.90;;;;;;4217273;28;20181;-93
2022/07/30 03:53:03;;;;;;;18.00;9.68;;;16.00;99.90;;;;;;4200634;28;20198;-93
2022/07/30 03:55:07;;;;;;;14.13;9.15;;;16.00;99.90;;;;;;4217532;28;20198;-93
2022/07/30 03:57:31;;;;;;;12.55;8.93;;;16.10;99.90;;;;;;4211805;28;20690;-94
2022/07/30 03:59:33;;;;;;;14.52;8.73;;;16.00;99.90;;;;;;4200360;28;20178;-94
2022/07/30 04:01:34;;;;;;;18.20;9.75;;;16.00;99.90;;;;;;4217117;28;20174;-93
2022/07/30 04:03:44;;;;;;;16.55;9.63;;;16.00;99.90;;;;;;4201273;28;20167;-93
2022/07/30 04:05:45;;;;;;;13.75;8.98;;;16.00;99.90;;;;;;4200132;28;20206;-93
2022/07/30 04:07:46;;;;;;;22.13;10.13;;;16.00;99.90;;;;;;4217050;28;20265;-92
2022/07/30 04:09:48;;;;;;;15.93;9.43;;;16.00;99.90;;;;;;4216753;28;20178;-94
2022/07/30 04:12:14;;;;;;;15.77;9.82;;;16.10;99.90;;;;;;4203445;28;20198;-93
2022/07/30 04:14:15;;;;;;;17.05;10.00;;;16.10;99.90;;;;;;4217064;28;20614;-93
2022/07/30 04:16:28;;;;;;;13.82;9.65;;;16.20;99.90;;;;;;4200441;28;20665;-94
2022/07/30 04:18:39;;;;;;;14.25;9.57;;;16.20;99.90;;;;;;4200027;28;20170;-94
2022/07/30 04:20:42;;;;;;;12.95;9.73;;;16.20;99.90;;;;;;4216581;28;20564;-93
2022/07/30 04:22:44;;;;;;;18.08;11.10;;;16.20;99.90;;;;;;4216641;28;20545;-95
2022/07/30 04:24:47;;;;;;;21.52;10.25;;;16.30;99.90;;;;;;4216683;28;20181;-94
2022/07/30 04:26:48;;;;;;;17.42;9.95;;;16.30;99.90;;;;;;4216571;28;20173;-93
2022/07/30 04:28:50;;;;;;;15.90;9.88;;;16.40;99.90;;;;;;4216497;28;20166;-93
2022/07/30 04:30:51;;;;;;;12.07;9.15;;;16.40;99.90;;;;;;4199645;28;20175;-92
2022/07/30 04:32:52;;;;;;;22.63;9.55;;;16.30;99.90;;;;;;4199618;28;20540;-92
2022/07/30 04:35:11;;;;;;;15.25;9.57;;;16.30;99.90;;;;;;4216779;28;20169;-93
2022/07/30 04:37:38;;;;;;;16.08;9.57;;;16.20;99.90;;;;;;4216621;28;20217;-93
2022/07/30 04:39:39;;;;;;;15.10;9.68;;;16.20;99.90;;;;;;4199670;28;20655;-92
2022/07/30 04:41:39;;;;;;;19.10;9.18;;;16.20;99.90;;;;;;4199895;28;20162;-94
2022/07/30 04:43:57;;;;;;;17.92;9.68;;;16.20;99.90;;;;;;4202103;28;20650;-92
2022/07/30 04:45:59;;;;;;;15.23;9.23;;;16.30;99.90;;;;;;4199907;28;20245;-93
2022/07/30 04:48:00;;;;;;;16.23;9.50;;;16.40;99.90;;;;;;4199773;28;20163;-93
2022/07/30 04:50:28;;;;;;;19.00;10.07;;;16.40;99.90;;;;;;4219538;28;20184;-93
2022/07/30 04:52:30;;;;;;;16.08;10.05;;;16.40;99.90;;;;;;4216363;28;20295;-94
2022/07/30 04:54:38;;;;;;;19.55;9.98;;;16.40;99.90;;;;;;4199625;28;20185;-93
2022/07/30 04:56:40;;;;;;;16.15;10.48;;;16.40;99.90;;;;;;4199396;28;20213;-93
2022/07/30 04:58:43;;;;;;;15.10;10.05;;;16.40;99.90;;;;;;4216064;28;20582;-93
2022/07/30 05:00:45;;;;;;;20.02;10.25;;;16.40;99.90;;;;;;4216059;28;20204;-93
2022/07/30 05:02:50;;;;;;;18.88;9.82;;;16.40;99.90;;;;;;4216481;28;20205;-93
2022/07/30 05:04:52;;;;;;;15.32;9.95;;;16.50;99.90;;;;;;4199365;28;20171;-94
2022/07/30 05:06:55;;;;;;;14.30;10.10;;;16.50;99.90;;;;;;4199415;28;20171;-94
2022/07/30 05:08:56;;;;;;;15.93;10.00;;;16.50;99.90;;;;;;4199219;28;20195;-94
2022/07/30 05:10:57;;;;;;;12.63;9.30;;;16.60;99.90;;;;;;4215782;28;20170;-93
2022/07/30 05:12:57;;;;;;;14.68;10.25;;;16.70;99.90;;;;;;4199096;28;20198;-92
2022/07/30 05:14:59;;;;;;;15.68;9.90;;;16.70;99.90;;;;;;4199225;28;20200;-92
2022/07/30 05:16:59;;;;;;;17.83;9.30;;;16.70;99.90;;;;;;4215736;28;20221;-92
2022/07/30 05:19:01;;;;;;;16.25;9.68;;;16.70;99.90;;;;;;4199249;28;20196;-93
2022/07/30 05:21:03;;;;;;;18.77;10.35;;;16.60;99.90;;;;;;4199135;28;20171;-92
2022/07/30 05:23:14;;;;;;;16.27;10.18;;;16.60;99.90;;;;;;4215696;28;20273;-93
2022/07/30 05:25:20;;;;;;;21.00;10.30;;;16.80;99.90;;;;;;4199543;28;20171;-92
2022/07/30 05:27:23;;;;;;;16.23;10.07;;;16.90;99.90;;;;;;4199116;28;20171;-92
2022/07/30 05:29:24;;;;;;;17.60;9.85;;;17.00;99.90;;;;;;4198886;28;20171;-94
2022/07/30 05:31:30;;;;;;;13.85;9.98;;;17.10;99.90;;;;;;4215588;28;20166;-93
2022/07/30 05:33:34;;;;;;;17.80;9.43;;;17.30;99.90;;;;;;4199236;28;20193;-93
2022/07/30 05:35:35;;;;;;;13.68;9.55;;;17.30;99.90;;;;;;4198701;28;20175;-92
2022/07/30 05:37:36;;;;;;;19.42;9.07;;;17.30;99.90;;;;;;4199067;28;20203;-93
2022/07/30 05:39:36;;;;;;;23.80;9.63;;;17.30;99.90;;;;;;4199262;28;20563;-92
2022/07/30 05:42:00;;;;;;;19.23;10.23;;;17.30;99.90;;;;;;4215784;28;20202;-93
2022/07/30 05:44:07;;;;;;;17.67;9.98;;;17.30;99.90;;;;;;4199605;28;20187;-92
2022/07/30 05:46:08;;;;;;;18.20;10.07;;;17.30;99.90;;;;;;4198558;28;20171;-93
2022/07/30 05:48:09;;;;;;;14.15;10.13;;;17.30;99.90;;;;;;4198774;28;20605;-92
2022/07/30 05:50:11;;;;;;;18.90;10.63;;;17.40;99.90;;;;;;4215227;28;20171;-93
2022/07/30 05:52:12;;;;;;;18.23;10.68;;;17.40;99.90;;;;;;4198597;28;20194;-92
2022/07/30 05:54:13;;;;;;;20.60;10.70;;;17.40;99.90;;;;;;4215429;28;20253;-92
2022/07/30 05:56:43;;;;;;;18.20;11.23;;;17.40;99.90;;;;;;4152327;28;20216;-93
2022/07/30 05:58:47;;;;;;;25.55;11.40;;;17.50;99.90;;;;;;4197007;28;20266;-91
2022/07/30 06:00:53;;;;;;;15.70;10.80;;;17.50;99.90;;;;;;4198699;28;20174;-92
2022/07/30 06:02:55;;;;;;;20.95;11.30;;;17.50;99.90;;;;;;4198708;28;20575;-93
2022/07/30 06:05:16;;;;;;;20.45;11.45;;;17.60;99.90;;;;;;4214469;28;20312;-92
2022/07/30 06:07:17;;;;;;;17.70;11.90;;;17.70;99.90;;;;;;4198554;28;20182;-92
2022/07/30 06:09:18;;;;;;;18.88;11.50;;;17.80;99.90;;;;;;4214966;28;20728;-92
2022/07/30 06:11:19;;;;;;;15.48;10.63;;;17.80;99.90;;;;;;4198389;28;20174;-93
2022/07/30 06:13:20;;;;;;;18.55;11.18;;;17.80;99.90;;;;;;4214924;28;20190;-92
2022/07/30 06:15:21;;;;;;;19.33;11.73;;;17.90;99.90;;;;;;4215111;28;20543;-92
2022/07/30 06:17:23;;;;;;;24.52;10.93;;;18.00;99.90;;;;;;4198747;28;20210;-92
2022/07/30 06:20:02;;;;;;;18.20;10.90;;;18.20;99.90;;;;;;4198115;28;20174;-92
2022/07/30 06:22:08;;;;;;;22.75;11.63;;;18.20;99.90;;;;;;4198744;28;20195;-91
2022/07/30 06:24:15;;;;;;;19.42;10.75;;;18.30;99.90;;;;;;4198812;28;20639;-92
2022/07/30 06:26:20;;;;;;;18.40;11.10;;;18.40;99.90;;;;;;4215218;28;20201;-92
2022/07/30 06:28:21;;;;;;;18.45;10.73;;;18.50;99.90;;;;;;4198029;28;20646;-92
2022/07/30 06:30:23;;;;;;;20.08;10.75;;;18.70;99.90;;;;;;4198170;28;20258;-92
2022/07/30 06:32:23;;;;;;;20.15;10.50;;;18.80;99.90;;;;;;4198083;28;20191;-92
2022/07/30 06:34:24;;;;;;;18.15;9.80;;;18.60;99.90;;;;;;4198269;28;20178;-92
2022/07/30 06:36:26;;;;;;;13.88;10.27;;;18.60;99.90;;;;;;4198074;28;20194;-93
2022/07/30 06:38:41;;;;;;;18.60;10.13;;;18.70;99.90;;;;;;4199898;28;20181;-93
2022/07/30 06:40:46;;;;;;;17.30;9.57;;;18.70;99.90;;;;;;4214978;28;20194;-94
2022/07/30 06:42:52;;;;;;;20.95;10.30;;;18.80;99.90;;;;;;4214654;28;20198;-92
2022/07/30 06:45:13;;;;;;;17.95;9.90;;;18.90;99.90;;;;;;4203888;28;20189;-92
2022/07/30 06:47:40;;;;;;;18.17;9.88;;;18.90;99.90;;;;;;4214710;28;20178;-91
2022/07/30 06:49:40;;;;;;;17.48;9.70;;;19.10;99.90;;;;;;4197810;28;20174;-91
2022/07/30 06:51:44;;;;;;;21.77;9.30;;;19.20;99.90;;;;;;4214482;28;20188;-93
2022/07/30 06:53:45;;;;;;;12.23;8.50;;;19.00;99.90;;;;;;4197921;28;20678;-92
2022/07/30 06:55:46;;;;;;;17.50;9.65;;;19.10;99.90;;;;;;4214426;28;20174;-91
2022/07/30 06:57:47;;;;;;;16.27;9.70;;;19.30;99.90;;;;;;4197767;28;20177;-93
2022/07/30 07:00:20;;;;;;;19.13;9.88;;;19.50;99.90;;;;;;4192281;28;20179;-93
2022/07/30 07:02:21;;;;;;;19.27;9.70;;;19.70;99.90;;;;;;4197575;28;20734;-91
2022/07/30 07:04:48;;;;;;;17.27;9.85;;;20.10;99.90;;;;;;4211428;28;20214;-93
2022/07/30 07:06:49;;;;;;;19.95;9.07;;;20.40;99.90;;;;;;4197616;28;20179;-94
2022/07/30 07:08:59;;;;;;;16.17;8.75;;;20.40;99.90;;;;;;4199148;28;20178;-93
2022/07/30 07:11:08;;;;;;;17.15;9.07;;;20.10;99.90;;;;;;4198478;28;20166;-93
2022/07/30 07:13:18;;;;;;;16.73;6.80;;;20.00;99.90;;;;;;4214284;28;20273;-92
2022/07/30 07:15:19;;;;;;;11.20;5.88;;;19.90;99.90;;;;;;4197632;28;20170;-91
2022/07/30 07:17:20;;;;;;;14.95;6.65;;;19.90;99.90;;;;;;4214793;28;20206;-92
2022/07/30 07:19:39;;;;;;;11.98;5.75;;;20.40;99.90;;;;;;4218245;28;20249;-91
2022/07/30 07:21:40;;;;;;;12.05;4.72;;;21.70;99.90;;;;;;4200867;28;20604;-92
2022/07/30 07:23:41;;;;;;;12.00;5.07;;;23.30;99.90;;;;;;4200723;28;20175;-92
2022/07/30 07:25:42;;;;;;;9.93;4.20;;;24.50;99.90;;;;;;4201029;28;20443;-91
2022/07/30 07:27:43;;;;;;;8.50;3.95;;;25.60;99.90;;;;;;4201322;28;20178;-90
2022/07/30 07:29:44;;;;;;;12.57;4.85;;;26.30;99.90;;;;;;4217887;28;20174;-91
2022/07/30 07:31:45;;;;;;;12.95;4.82;;;27.10;99.90;;;;;;4200933;28;20618;-92
2022/07/30 07:33:47;;;;;;;8.75;4.88;;;27.40;99.90;;;;;;4217480;28;20174;-92
2022/07/30 07:35:48;;;;;;;8.38;4.25;;;27.50;99.90;;;;;;4217470;28;20257;-92
2022/07/30 07:37:50;;;;;;;11.63;5.35;;;28.10;99.90;;;;;;4217688;28;20174;-92
2022/07/30 07:39:55;;;;;;;9.13;5.32;;;28.30;99.90;;;;;;4201352;28;20195;-93
2022/07/30 07:41:56;;;;;;;9.50;4.88;;;28.60;99.90;;;;;;4200789;28;20641;-93
2022/07/30 07:43:59;;;;;;;6.95;4.43;;;29.00;99.90;;;;;;4217167;28;20238;-92
2022/07/30 07:46:06;;;;;;;11.82;4.35;;;29.50;99.90;;;;;;4201186;28;20190;-93
2022/07/30 07:48:09;;;;;;;7.70;4.80;;;29.50;99.90;;;;;;4217507;28;20167;-92
2022/07/30 07:50:33;;;;;;;11.02;5.47;;;29.90;99.90;;;;;;4204277;28;20174;-93
2022/07/30 07:52:34;;;;;;;9.80;5.18;;;29.80;99.90;;;;;;4200741;28;20191;-93
2022/07/30 07:54:35;;;;;;;9.63;4.38;;;29.70;99.90;;;;;;4217292;28;20222;-92
2022/07/30 07:56:36;;;;;;;7.93;4.60;;;29.50;99.90;;;;;;4200362;28;20226;-91
2022/07/30 07:58:36;;;;;;;9.43;4.65;;;30.00;99.90;;;;;;4216975;28;20567;-91
2022/07/30 08:00:39;;;;;;;9.57;3.95;;;30.50;99.90;;;;;;4200148;28;20264;-93
2022/07/30 08:02:40;;;;;;;8.90;5.35;;;30.90;99.90;;;;;;4217027;28;20222;-92
2022/07/30 08:04:42;;;;;;;11.77;6.03;;;30.80;99.90;;;;;;4200286;28;20171;-92
2022/07/30 08:06:43;;;;;;;12.32;5.97;;;31.30;99.90;;;;;;4217310;28;20255;-89
2022/07/30 08:09:03;;;;;;;9.10;5.43;;;32.40;99.90;;;;;;4217167;28;20542;-89
2022/07/30 08:11:24;;;;;;;11.63;6.30;;;32.20;99.90;;;;;;4203122;28;20225;-90
2022/07/30 08:13:51;;;;;;;13.90;6.13;;;32.00;99.90;;;;;;4217151;28;20265;-90
2022/07/30 08:16:10;;;;;;;11.77;6.00;;;32.30;99.90;;;;;;4217580;28;20696;-91
2022/07/30 08:18:35;;;;;;;10.90;5.97;;;32.70;99.90;;;;;;4195736;28;20170;-90
2022/07/30 08:20:56;;;;;;;11.00;6.30;;;32.60;99.90;;;;;;4203049;28;20658;-91
2022/07/30 08:23:03;;;;;;;12.95;5.90;;;32.10;99.90;;;;;;4200744;28;20696;-89
2022/07/30 08:25:04;;;;;;;9.27;4.63;;;32.20;99.90;;;;;;4200185;28;20171;-89
2022/07/30 08:27:05;;;;;;;13.25;4.75;;;31.80;99.90;;;;;;4216932;28;20173;-89
2022/07/30 08:29:06;;;;;;;7.32;4.63;;;30.70;99.90;;;;;;4199434;28;20205;-90
2022/07/30 08:31:08;;;;;;;9.13;4.10;;;30.60;99.90;;;;;;4216779;28;20178;-91
2022/07/30 08:33:08;;;;;;;6.00;4.00;;;30.70;99.90;;;;;;4216701;28;20194;-89
2022/07/30 08:35:09;;;;;;;8.52;4.95;;;31.10;99.90;;;;;;4216448;28;20601;-90
2022/07/30 08:37:10;;;;;;;10.95;4.85;;;31.50;99.90;;;;;;4199808;28;20198;-91
2022/07/30 08:39:11;;;;;;;13.50;4.65;;;32.10;99.90;;;;;;4199765;28;20639;-90
2022/07/30 08:41:12;;;;;;;8.10;3.85;;;33.20;99.90;;;;;;4199766;28;20174;-91
2022/07/30 08:43:14;;;;;;;14.05;5.30;;;33.30;99.90;;;;;;4199796;28;20186;-90
2022/07/30 08:45:16;;;;;;;9.88;5.25;;;34.00;99.90;;;;;;4199889;28;20284;-89
2022/07/30 08:47:19;;;;;;;8.63;5.03;;;34.30;99.90;;;;;;4199741;28;20174;-90
2022/07/30 08:49:39;;;;;;;9.88;4.75;;;34.00;99.90;;;;;;4216630;28;20205;-90
2022/07/30 08:51:40;;;;;;;9.55;3.72;;;33.20;99.90;;;;;;4199465;28;20201;-91
2022/07/30 08:54:03;;;;;;;5.80;3.42;;;33.20;99.90;;;;;;4216144;28;20177;-91
2022/07/30 08:56:05;;;;;;;7.00;3.58;;;32.60;99.90;;;;;;4199552;28;20557;-91
2022/07/30 08:58:27;;;;;;;6.60;2.90;;;33.40;99.90;;;;;;4199681;28;20706;-90
2022/07/30 09:00:30;;;;;;;6.05;2.25;;;34.10;99.90;;;;;;4199393;28;20212;-91
2022/07/30 09:02:31;;;;;;;8.05;3.10;;;33.80;99.90;;;;;;4199437;28;20194;-91
2022/07/30 09:04:39;;;;;;;8.25;2.90;;;33.80;99.90;;;;;;4216226;28;20184;-90
2022/07/30 09:06:40;;;;;;;4.35;2.30;;;33.30;99.90;;;;;;4216432;28;20237;-89
2022/07/30 09:08:41;;;;;;;6.30;2.72;;;33.40;99.90;;;;;;4199490;28;20273;-90
2022/07/30 09:10:43;;;;;;;6.85;2.78;;;33.90;99.90;;;;;;4216021;28;20173;-90
2022/07/30 09:12:44;;;;;;;5.50;2.80;;;34.50;99.90;;;;;;4199338;28;20257;-89
2022/07/30 09:15:01;;;;;;;7.43;3.00;;;34.00;99.90;;;;;;4216352;28;20607;-90
2022/07/30 09:17:02;;;;;;;4.93;2.13;;;34.20;99.90;;;;;;4215905;28;20656;-90
2022/07/30 09:19:20;;;;;;;6.18;2.70;;;33.90;99.90;;;;;;4199320;28;20169;-90
2022/07/30 09:21:27;;;;;;;4.72;2.20;;;33.90;99.90;;;;;;4198874;28;20211;-89
2022/07/30 09:23:55;;;;;;;5.82;1.80;;;32.30;99.90;;;;;;4230453;28;20703;-89
2022/07/30 09:26:14;;;;;;;3.17;1.70;;;31.90;99.90;;;;;;4216228;28;20216;-91
2022/07/30 09:28:15;;;;;;;5.00;1.90;;;31.30;99.90;;;;;;4216099;28;20165;-91
2022/07/30 09:30:53;;;;;;;5.43;1.75;;;30.90;99.90;;;;;;4204434;28;20181;-93
2022/07/30 09:33:13;;;;;;;5.57;1.17;;;30.80;99.90;;;;;;4216666;28;20205;-91
2022/07/30 09:35:41;;;;;;;3.40;1.00;;;30.50;99.90;;;;;;4215257;28;20588;-90
2022/07/30 09:37:45;;;;;;;4.15;1.08;;;31.00;99.90;;;;;;4216602;28;20221;-90
2022/07/30 09:40:11;;;;;;;19.02;1.45;;;31.20;99.90;;;;;;4194635;28;20178;-89
2022/07/30 09:42:30;;;;;;;8.80;1.52;;;31.30;99.90;;;;;;4215947;28;20262;-91
2022/07/30 09:44:37;;;;;;;2.95;1.10;;;31.60;99.90;;;;;;4199669;28;20175;-91
2022/07/30 09:46:45;;;;;;;1.98;1.00;;;32.20;99.90;;;;;;4215779;28;20197;-92
2022/07/30 09:48:48;;;;;;;4.32;1.20;;;32.00;99.90;;;;;;4215596;28;20180;-91
2022/07/30 09:50:51;;;;;;;5.03;1.13;;;32.00;99.90;;;;;;4215513;28;20170;-92
2022/07/30 09:52:53;;;;;;;2.83;1.10;;;31.80;99.90;;;;;;4215255;28;20765;-90
2022/07/30 09:54:54;;;;;;;4.00;1.10;;;31.40;99.90;;;;;;4215409;28;20288;-91
2022/07/30 09:57:08;;;;;;;5.43;1.20;;;31.30;99.90;;;;;;4198937;28;20308;-91
2022/07/30 09:59:26;;;;;;;6.55;1.02;;;31.40;99.90;;;;;;4215231;28;20173;-90
2022/07/30 10:01:27;;;;;;;6.32;1.10;;;31.10;99.90;;;;;;4215022;28;20213;-89
2022/07/30 10:04:03;;;;;;;2.58;0.80;;;31.30;99.90;;;;;;4215425;28;20256;-91
2022/07/30 10:06:35;;;;;;;2.55;0.95;;;31.90;99.90;;;;;;4215279;28;20177;-91
2022/07/30 10:08:50;;;;;;;5.40;1.15;;;31.90;99.90;;;;;;4198892;28;20190;-90
2022/07/30 10:10:50;;;;;;;4.80;1.08;;;31.90;99.90;;;;;;4214901;28;20294;-92
2022/07/30 10:12:58;;;;;;;3.50;1.10;;;31.60;99.90;;;;;;4198063;28;20668;-90
2022/07/30 10:15:01;;;;;;;6.65;1.13;;;31.30;99.90;;;;;;4198102;28;20163;-91
2022/07/30 10:17:04;;;;;;;3.85;1.33;;;31.70;99.90;;;;;;4198152;28;20218;-91
2022/07/30 10:19:07;;;;;;;12.85;1.40;;;32.10;99.90;;;;;;4215078;28;20173;-92
2022/07/30 10:21:27;;;;;;;6.32;1.02;;;32.10;99.90;;;;;;4215109;28;20668;-90
2022/07/30 10:23:47;;;;;;;6.40;1.10;;;32.20;99.90;;;;;;4215593;28;20169;-90
2022/07/30 10:26:07;;;;;;;3.20;1.20;;;32.20;99.90;;;;;;4215444;28;20185;-92
2022/07/30 10:28:31;;;;;;;13.57;1.30;;;31.90;99.90;;;;;;4178122;28;20178;-89
2022/07/30 10:30:33;;;;;;;7.05;1.17;;;31.10;99.90;;;;;;4198127;28;20201;-90
2022/07/30 10:32:37;;;;;;;1.70;0.90;;;30.90;99.90;;;;;;4198127;28;20281;-89
2022/07/30 10:34:38;;;;;;;3.38;1.27;;;30.70;99.90;;;;;;4214743;28;20303;-90
2022/07/30 10:36:49;;;;;;;4.22;1.17;;;30.70;99.90;;;;;;4214740;28;20197;-92
2022/07/30 10:38:51;;;;;;;3.67;1.10;;;30.60;99.90;;;;;;4214708;28;20670;-89
2022/07/30 10:41:06;;;;;;;8.20;1.20;;;30.70;99.90;;;;;;4214650;28;20182;-90
2022/07/30 10:43:12;;;;;;;2.40;0.82;;;31.20;99.90;;;;;;4214698;28;20194;-92
2022/07/30 10:45:25;;;;;;;4.82;1.05;;;31.10;99.90;;;;;;4197799;28;20225;-91
2022/07/30 10:47:27;;;;;;;2.20;1.02;;;30.30;99.90;;;;;;4214551;28;20222;-89